Time;durP1;ratioP1;P1;durP2;ratioP2;P2;SDS_P1;SDS_P2;PMS_P1;PMS_P2;Temp;Humidity;BMP_temperature;BMP_pressure;BME280_temperature;BME280_humidity;BME280_pressure;Samples;Min_cycle;Max_cycle;Signal;HPM_P1;HPM_P2
2021/07/11 00:00:45;;;;;;;4.30;4.00;;;;;24.20;100421.00;;;;2065712;28;20222;-65
2021/07/11 00:01:45;;;;;;;4.53;4.13;;;;;24.10;100422.00;;;;2066442;28;20225;-65
2021/07/11 00:02:46;;;;;;;4.20;3.90;;;;;24.20;100414.00;;;;2066273;28;20222;-64
2021/07/11 00:03:46;;;;;;;4.60;4.13;;;;;24.10;100414.00;;;;2066712;28;20214;-65
2021/07/11 00:04:47;;;;;;;4.60;4.20;;;;;24.10;100417.00;;;;2070104;28;20214;-65
2021/07/11 00:05:47;;;;;;;4.57;4.17;;;;;24.10;100418.00;;;;2069405;28;20242;-64
2021/07/11 00:06:47;;;;;;;5.10;4.70;;;;;24.10;100415.00;;;;2069222;28;20217;-65
2021/07/11 00:07:48;;;;;;;4.90;4.50;;;;;24.10;100418.00;;;;2069093;28;20224;-65
2021/07/11 00:08:48;;;;;;;4.23;3.93;;;;;24.10;100410.00;;;;2058483;28;20214;-64
2021/07/11 00:09:48;;;;;;;4.70;4.30;;;;;24.10;100413.00;;;;2066003;28;20310;-65
2021/07/11 00:10:49;;;;;;;4.53;4.13;;;;;24.10;100414.00;;;;2065745;28;20285;-65
2021/07/11 00:11:49;;;;;;;4.50;4.10;;;;;24.10;100412.00;;;;2066492;28;20231;-65
2021/07/11 00:12:51;;;;;;;4.03;3.73;;;;;24.10;100414.00;;;;2066914;28;20210;-65
2021/07/11 00:13:51;;;;;;;4.90;4.50;;;;;24.10;100413.00;;;;2067034;28;20207;-65
2021/07/11 00:14:52;;;;;;;4.77;4.37;;;;;24.10;100412.00;;;;2067131;28;20221;-65
2021/07/11 00:15:53;;;;;;;4.70;4.30;;;;;24.10;100408.00;;;;2067090;28;20210;-65
2021/07/11 00:16:53;;;;;;;4.60;4.30;;;;;24.10;100409.00;;;;2066366;28;20214;-64
2021/07/11 00:17:54;;;;;;;5.27;4.87;;;;;24.10;100414.00;;;;2066121;28;20244;-65
2021/07/11 00:18:55;;;;;;;4.60;4.20;;;;;24.10;100418.00;;;;2066358;28;20226;-65
2021/07/11 00:19:56;;;;;;;4.70;4.27;;;;;24.10;100413.00;;;;2064921;28;20689;-65
2021/07/11 00:20:56;;;;;;;4.03;3.73;;;;;24.10;100410.00;;;;2066259;28;20272;-64
2021/07/11 00:21:56;;;;;;;5.23;4.83;;;;;24.10;100417.00;;;;2066964;28;20836;-65
2021/07/11 00:22:57;;;;;;;4.40;4.10;;;;;24.10;100408.00;;;;2067202;28;20214;-64
2021/07/11 00:23:57;;;;;;;4.20;3.90;;;;;24.10;100409.00;;;;2067057;28;20302;-65
2021/07/11 00:24:57;;;;;;;5.13;4.73;;;;;24.10;100412.00;;;;2066898;28;20245;-64
2021/07/11 00:25:58;;;;;;;4.80;4.40;;;;;24.10;100402.00;;;;2066382;28;20628;-64
2021/07/11 00:26:58;;;;;;;4.20;3.90;;;;;24.10;100404.00;;;;2066050;28;20221;-65
2021/07/11 00:27:58;;;;;;;5.30;4.80;;;;;24.10;100401.00;;;;2065570;28;20273;-65
2021/07/11 00:28:59;;;;;;;5.30;4.90;;;;;24.10;100401.00;;;;2066207;28;20219;-64
2021/07/11 00:29:59;;;;;;;4.70;4.30;;;;;24.10;100408.00;;;;2066928;28;20582;-64
2021/07/11 00:30:59;;;;;;;4.87;4.47;;;;;24.10;100406.00;;;;2066422;28;20255;-65
2021/07/11 00:32:00;;;;;;;4.73;4.33;;;;;24.10;100405.00;;;;2066936;28;20682;-65
2021/07/11 00:33:00;;;;;;;4.60;3.90;;;;;24.10;100413.00;;;;2066823;28;20203;-64
2021/07/11 00:34:01;;;;;;;4.50;4.10;;;;;24.10;100411.00;;;;2066585;28;20221;-64
2021/07/11 00:35:01;;;;;;;5.23;4.83;;;;;24.10;100403.00;;;;2067680;28;20206;-64
2021/07/11 00:36:01;;;;;;;4.87;4.47;;;;;24.10;100412.00;;;;2066986;28;20584;-64
2021/07/11 00:37:02;;;;;;;5.17;4.77;;;;;24.10;100420.00;;;;2066364;28;20322;-64
2021/07/11 00:38:03;;;;;;;5.70;5.23;;;;;24.10;100402.00;;;;2069875;28;20707;-64
2021/07/11 00:39:03;;;;;;;4.97;4.57;;;;;24.10;100401.00;;;;2066274;28;20214;-64
2021/07/11 00:40:05;;;;;;;5.17;4.77;;;;;24.10;100408.00;;;;2057652;28;20705;-64
2021/07/11 00:41:05;;;;;;;5.25;4.80;;;;;24.10;100403.00;;;;2057223;28;20215;-65
2021/07/11 00:42:05;;;;;;;5.33;4.83;;;;;24.10;100406.00;;;;2066472;28;20297;-65
2021/07/11 00:43:06;;;;;;;4.40;4.00;;;;;24.10;100401.00;;;;2066401;28;20215;-64
2021/07/11 00:44:06;;;;;;;4.10;3.80;;;;;24.10;100405.00;;;;2067116;28;20210;-65
2021/07/11 00:45:08;;;;;;;4.80;4.40;;;;;24.10;100404.00;;;;2066955;28;20214;-64
2021/07/11 00:46:08;;;;;;;5.75;5.25;;;;;24.10;100398.00;;;;2066924;28;20499;-65
2021/07/11 00:47:10;;;;;;;5.00;4.60;;;;;24.10;100418.00;;;;2066097;28;20280;-65
2021/07/11 00:48:10;;;;;;;4.78;4.38;;;;;24.10;100403.00;;;;2066075;28;20237;-65
2021/07/11 00:49:11;;;;;;;5.47;5.00;;;;;24.10;100418.00;;;;2057458;28;20203;-65
2021/07/11 00:50:14;;;;;;;4.53;4.20;;;;;24.10;100415.00;;;;2057174;28;20203;-64
2021/07/11 00:51:15;;;;;;;4.90;4.50;;;;;24.10;100416.00;;;;2066918;28;20295;-64
2021/07/11 00:52:15;;;;;;;5.40;5.00;;;;;24.10;100416.00;;;;2065630;28;20219;-64
2021/07/11 00:53:15;;;;;;;5.50;5.00;;;;;24.10;100421.00;;;;2062083;28;20292;-64
2021/07/11 00:54:16;;;;;;;4.50;4.20;;;;;24.10;100420.00;;;;2066819;28;20214;-65
2021/07/11 00:55:16;;;;;;;5.20;4.80;;;;;24.10;100427.00;;;;2066023;28;20305;-64
2021/07/11 00:56:16;;;;;;;4.83;4.43;;;;;24.10;100418.00;;;;2066222;28;20778;-64
2021/07/11 00:57:17;;;;;;;5.10;4.70;;;;;24.10;100410.00;;;;2066063;28;20701;-64
2021/07/11 00:58:17;;;;;;;4.90;4.50;;;;;24.10;100411.00;;;;2066146;28;20223;-64
2021/07/11 00:59:19;;;;;;;4.83;4.40;;;;;24.10;100407.00;;;;2066872;28;20218;-65
2021/07/11 01:00:19;;;;;;;4.78;4.38;;;;;24.10;100417.00;;;;2049411;28;20749;-65
2021/07/11 01:01:36;;;;;;;4.50;4.10;;;;;24.10;100419.00;;;;2049949;28;20239;-65
2021/07/11 01:03:01;;;;;;;5.30;4.90;;;;;24.10;100421.00;;;;2052721;28;20880;-65
2021/07/11 01:04:04;;;;;;;4.75;4.35;;;;;24.10;100428.00;;;;2053440;28;20214;-64
2021/07/11 01:05:09;;;;;;;4.43;4.13;;;;;24.10;100432.00;;;;2061012;28;20310;-64
2021/07/11 01:06:10;;;;;;;5.70;5.20;;;;;24.10;100431.00;;;;2050933;28;20219;-64
2021/07/11 01:07:10;;;;;;;5.33;4.53;;;;;24.10;100434.00;;;;2043213;29;20224;-65
2021/07/11 01:08:13;;;;;;;4.63;4.23;;;;;24.10;100428.00;;;;2043011;29;20213;-65
2021/07/11 01:09:16;;;;;;;5.40;4.95;;;;;24.10;100436.00;;;;2053524;28;20226;-65
2021/07/11 01:10:17;;;;;;;5.25;4.85;;;;;24.10;100435.00;;;;2039459;28;20315;-64
2021/07/11 01:11:18;;;;;;;4.47;4.18;;;;;24.10;100438.00;;;;2043659;28;20248;-64
2021/07/11 01:12:20;;;;;;;3.70;3.40;;;;;24.10;100441.00;;;;2049625;28;20255;-64
2021/07/11 01:13:21;;;;;;;4.00;3.70;;;;;24.10;100437.00;;;;2034664;29;20240;-65
2021/07/11 01:14:21;;;;;;;5.10;4.33;;;;;24.00;100433.00;;;;2034665;29;20214;-65
2021/07/11 01:15:23;;;;;;;4.87;4.47;;;;;24.10;100444.00;;;;2034538;29;20268;-65
2021/07/11 01:16:29;;;;;;;4.10;3.80;;;;;24.00;100437.00;;;;2042316;28;20212;-65
2021/07/11 01:17:29;;;;;;;4.65;4.25;;;;;24.00;100434.00;;;;2037762;29;20257;-65
2021/07/11 01:18:29;;;;;;;5.30;4.90;;;;;24.10;100440.00;;;;2036869;29;20778;-65
2021/07/11 01:19:41;;;;;;;5.50;4.50;;;;;24.00;100432.00;;;;2049977;28;20247;-64
2021/07/11 01:20:50;;;;;;;3.92;3.63;;;;;24.10;100442.00;;;;2059700;28;20227;-64
2021/07/11 01:21:52;;;;;;;3.83;3.53;;;;;24.10;100440.00;;;;2050951;28;20769;-64
2021/07/11 01:22:53;;;;;;;4.13;3.83;;;;;24.00;100441.00;;;;2043514;29;20968;-64
2021/07/11 01:23:59;;;;;;;4.33;3.93;;;;;24.00;100437.00;;;;2051038;28;20220;-64
2021/07/11 01:25:07;;;;;;;5.22;4.82;;;;;24.00;100441.00;;;;2043656;29;20220;-65
2021/07/11 01:26:09;;;;;;;4.90;4.50;;;;;24.00;100437.00;;;;2046306;28;20217;-64
2021/07/11 01:27:09;;;;;;;4.68;4.38;;;;;24.00;100441.00;;;;2059896;28;20214;-65
2021/07/11 01:28:17;;;;;;;4.20;3.90;;;;;24.00;100439.00;;;;2050928;28;20211;-65
2021/07/11 01:29:18;;;;;;;4.43;4.03;;;;;24.10;100442.00;;;;2043877;29;20319;-64
2021/07/11 01:30:19;;;;;;;4.83;4.43;;;;;24.10;100431.00;;;;2050933;28;20488;-64
2021/07/11 01:31:20;;;;;;;4.50;4.20;;;;;24.00;100434.00;;;;2050799;28;20454;-64
2021/07/11 01:32:20;;;;;;;4.23;3.93;;;;;24.00;100430.00;;;;2043036;29;20456;-65
2021/07/11 01:33:23;;;;;;;4.40;4.10;;;;;24.00;100435.00;;;;2050709;28;20463;-65
2021/07/11 01:34:23;;;;;;;4.13;3.83;;;;;24.00;100435.00;;;;2050834;28;20212;-64
2021/07/11 01:35:24;;;;;;;4.60;4.20;;;;;24.00;100441.00;;;;2035958;29;20296;-65
2021/07/11 01:36:25;;;;;;;5.03;3.93;;;;;24.00;100439.00;;;;2043575;29;20217;-65
2021/07/11 01:37:25;;;;;;;4.50;4.10;;;;;24.00;100436.00;;;;2051648;28;20223;-64
2021/07/11 01:38:25;;;;;;;4.00;3.70;;;;;24.00;100437.00;;;;2044350;28;20247;-65
2021/07/11 01:39:26;;;;;;;4.50;4.20;;;;;24.10;100430.00;;;;2047947;28;20243;-65
2021/07/11 01:40:27;;;;;;;3.90;3.60;;;;;24.00;100431.00;;;;2050187;28;20311;-64
2021/07/11 01:41:27;;;;;;;4.87;4.47;;;;;24.00;100429.00;;;;2043648;29;20669;-64
2021/07/11 01:42:28;;;;;;;4.30;3.90;;;;;24.00;100434.00;;;;2043489;28;20339;-65
2021/07/11 01:43:28;;;;;;;3.70;3.50;;;;;24.00;100433.00;;;;2043072;29;20225;-65
2021/07/11 01:44:28;;;;;;;4.40;4.10;;;;;24.00;100429.00;;;;2045168;28;20232;-65
2021/07/11 01:45:29;;;;;;;4.13;3.73;;;;;24.00;100432.00;;;;2051376;28;20224;-65
2021/07/11 01:46:29;;;;;;;3.77;3.57;;;;;24.00;100436.00;;;;2060047;28;20250;-65
2021/07/11 01:47:30;;;;;;;4.67;4.27;;;;;24.00;100433.00;;;;2059721;28;20223;-65
2021/07/11 01:48:30;;;;;;;3.90;3.60;;;;;24.00;100436.00;;;;2050613;28;20247;-65
2021/07/11 01:49:31;;;;;;;4.17;3.87;;;;;24.00;100442.00;;;;2050342;28;20244;-65
2021/07/11 01:50:31;;;;;;;4.87;3.83;;;;;24.00;100430.00;;;;2058665;28;20620;-65
2021/07/11 01:51:31;;;;;;;4.00;3.70;;;;;24.10;100441.00;;;;2042931;29;20245;-64
2021/07/11 01:52:32;;;;;;;4.07;3.70;;;;;24.00;100438.00;;;;2043685;29;20220;-65
2021/07/11 01:53:34;;;;;;;4.83;4.40;;;;;24.00;100447.00;;;;2051267;28;20235;-65
2021/07/11 01:54:35;;;;;;;4.05;3.75;;;;;24.00;100434.00;;;;2051553;28;20211;-65
2021/07/11 01:55:35;;;;;;;4.10;3.80;;;;;24.00;100438.00;;;;2043260;29;20656;-65
2021/07/11 01:56:35;;;;;;;3.80;3.50;;;;;24.00;100441.00;;;;2041992;29;20341;-65
2021/07/11 01:57:36;;;;;;;4.37;4.03;;;;;24.00;100445.00;;;;2050497;28;20219;-65
2021/07/11 01:58:38;;;;;;;3.43;3.23;;;;;24.00;100439.00;;;;2050684;28;20255;-64
2021/07/11 01:59:39;;;;;;;3.83;3.53;;;;;24.00;100438.00;;;;2059372;28;20224;-65
2021/07/11 02:00:39;;;;;;;4.40;4.00;;;;;24.00;100436.00;;;;2059405;28;20227;-65
2021/07/11 02:01:40;;;;;;;4.43;4.03;;;;;24.00;100436.00;;;;2059816;28;20222;-65
2021/07/11 02:02:44;;;;;;;4.30;3.77;;;;;24.00;100432.00;;;;2060020;28;20223;-65
2021/07/11 02:03:44;;;;;;;4.07;3.78;;;;;24.00;100426.00;;;;2059398;28;20218;-65
2021/07/11 02:04:44;;;;;;;4.00;3.70;;;;;24.00;100437.00;;;;2059209;28;20588;-64
2021/07/11 02:05:45;;;;;;;4.13;3.83;;;;;24.00;100434.00;;;;2059034;28;20578;-65
2021/07/11 02:06:46;;;;;;;4.55;4.15;;;;;24.00;100436.00;;;;2059307;28;20230;-64
2021/07/11 02:07:46;;;;;;;4.23;3.93;;;;;24.00;100438.00;;;;2059436;28;20220;-65
2021/07/11 02:08:46;;;;;;;4.00;3.70;;;;;24.00;100444.00;;;;2059865;28;20220;-65
2021/07/11 02:09:47;;;;;;;3.80;3.50;;;;;24.00;100434.00;;;;2059720;28;20243;-65
2021/07/11 02:10:49;;;;;;;3.47;3.27;;;;;24.00;100444.00;;;;2059413;28;20238;-65
2021/07/11 02:11:49;;;;;;;3.50;3.20;;;;;24.00;100444.00;;;;2059393;28;20217;-65
2021/07/11 02:12:55;;;;;;;4.20;3.80;;;;;24.00;100444.00;;;;2051506;28;20250;-65
2021/07/11 02:14:00;;;;;;;4.57;4.18;;;;;24.00;100453.00;;;;2058460;28;20599;-64
2021/07/11 02:15:03;;;;;;;3.58;3.28;;;;;24.00;100449.00;;;;2047216;28;20730;-65
2021/07/11 02:16:17;;;;;;;3.88;3.60;;;;;24.00;100451.00;;;;2046466;28;20212;-65
2021/07/11 02:17:20;;;;;;;3.72;3.42;;;;;24.00;100445.00;;;;2059718;28;20588;-65
2021/07/11 02:18:24;;;;;;;3.83;3.53;;;;;24.00;100445.00;;;;2059917;28;20765;-65
2021/07/11 02:19:25;;;;;;;4.10;3.70;;;;;24.00;100437.00;;;;2059810;28;20206;-65
2021/07/11 02:20:26;;;;;;;3.10;2.90;;;;;24.00;100440.00;;;;2050137;28;20212;-65
2021/07/11 02:21:26;;;;;;;3.10;2.90;;;;;24.00;100440.00;;;;2042656;29;20220;-65
2021/07/11 02:22:27;;;;;;;3.70;3.47;;;;;24.00;100450.00;;;;2050654;28;21032;-64
2021/07/11 02:23:30;;;;;;;3.67;3.37;;;;;24.00;100443.00;;;;2058618;28;20494;-65
2021/07/11 02:24:35;;;;;;;3.95;3.65;;;;;24.00;100443.00;;;;2059731;28;20686;-65
2021/07/11 02:25:35;;;;;;;3.97;3.67;;;;;24.00;100444.00;;;;2043280;29;20228;-65
2021/07/11 02:26:36;;;;;;;3.37;3.07;;;;;24.00;100442.00;;;;2043855;28;20247;-65
2021/07/11 02:27:36;;;;;;;3.50;3.20;;;;;24.00;100438.00;;;;2050445;28;20553;-64
2021/07/11 02:28:36;;;;;;;3.10;2.90;;;;;24.00;100440.00;;;;2042031;29;20487;-65
2021/07/11 02:29:43;;;;;;;3.90;3.60;;;;;24.00;100445.00;;;;2034635;29;20655;-65
2021/07/11 02:30:58;;;;;;;2.95;2.75;;;;;24.00;100442.00;;;;2058503;28;20227;-65
2021/07/11 02:32:02;;;;;;;3.80;3.50;;;;;24.00;100445.00;;;;2058517;28;20221;-65
2021/07/11 02:33:10;;;;;;;3.38;3.15;;;;;24.00;100445.00;;;;2050045;28;20675;-65
2021/07/11 02:34:12;;;;;;;3.35;3.05;;;;;24.00;100448.00;;;;2044527;28;20287;-65
2021/07/11 02:35:12;;;;;;;3.70;3.40;;;;;24.00;100446.00;;;;2051857;28;20235;-65
2021/07/11 02:36:17;;;;;;;3.80;3.40;;;;;24.00;100446.00;;;;2059302;28;20644;-65
2021/07/11 02:37:18;;;;;;;3.45;3.15;;;;;24.00;100448.00;;;;2058837;28;20301;-65
2021/07/11 02:38:18;;;;;;;3.40;3.10;;;;;24.00;100436.00;;;;2058859;28;20215;-65
2021/07/11 02:39:20;;;;;;;3.33;3.10;;;;;24.00;100449.00;;;;2050407;28;20213;-65
2021/07/11 02:40:20;;;;;;;3.20;2.90;;;;;24.00;100450.00;;;;2050506;28;20220;-65
2021/07/11 02:41:21;;;;;;;3.10;2.80;;;;;24.00;100447.00;;;;2043278;29;20208;-65
2021/07/11 02:42:21;;;;;;;3.37;3.07;;;;;24.00;100450.00;;;;2043376;28;20209;-65
2021/07/11 02:43:22;;;;;;;3.00;2.80;;;;;24.00;100451.00;;;;2051681;28;20452;-65
2021/07/11 02:44:22;;;;;;;3.40;3.10;;;;;24.00;100442.00;;;;2043462;28;20216;-65
2021/07/11 02:45:22;;;;;;;4.10;3.77;;;;;24.00;100442.00;;;;2052014;28;20219;-64
2021/07/11 02:46:27;;;;;;;3.37;3.07;;;;;24.00;100447.00;;;;2052685;28;20751;-64
2021/07/11 02:47:28;;;;;;;3.50;3.22;;;;;24.00;100438.00;;;;2058691;28;20270;-65
2021/07/11 02:48:29;;;;;;;3.53;3.22;;;;;24.00;100433.00;;;;2050980;28;20212;-65
2021/07/11 02:49:30;;;;;;;4.00;3.63;;;;;24.00;100429.00;;;;2042836;29;20610;-65
2021/07/11 02:50:31;;;;;;;3.67;3.38;;;;;24.00;100433.00;;;;2042082;28;20655;-65
2021/07/11 02:51:31;;;;;;;3.20;3.00;;;;;24.00;100430.00;;;;2050282;28;20222;-65
2021/07/11 02:52:31;;;;;;;3.23;3.03;;;;;24.00;100431.00;;;;2049726;28;20216;-64
2021/07/11 02:53:32;;;;;;;3.77;3.20;;;;;24.00;100426.00;;;;2041767;29;20305;-64
2021/07/11 02:54:53;;;;;;;3.20;3.00;;;;;24.00;100426.00;;;;2033955;29;20269;-64
2021/07/11 02:55:53;;;;;;;3.50;3.20;;;;;24.00;100426.00;;;;2032983;29;20212;-65
2021/07/11 02:56:59;;;;;;;3.70;3.40;;;;;24.00;100427.00;;;;2041751;28;20213;-64
2021/07/11 02:58:07;;;;;;;3.85;3.55;;;;;24.00;100420.00;;;;2050816;28;20216;-65
2021/07/11 02:59:08;;;;;;;3.50;3.20;;;;;24.00;100432.00;;;;2035835;29;20213;-65
2021/07/11 03:00:09;;;;;;;4.30;3.78;;;;;24.00;100442.00;;;;2045913;28;20244;-65
2021/07/11 03:01:10;;;;;;;3.30;3.10;;;;;24.00;100426.00;;;;2058353;28;20223;-65
2021/07/11 03:02:10;;;;;;;4.70;4.30;;;;;24.00;100429.00;;;;2058933;28;20219;-65
2021/07/11 03:03:12;;;;;;;4.40;3.57;;;;;24.00;100437.00;;;;2050347;28;20455;-65
2021/07/11 03:04:12;;;;;;;5.78;4.13;;;;;24.00;100432.00;;;;2042157;29;20205;-65
2021/07/11 03:05:18;;;;;;;3.60;3.40;;;;;24.00;100436.00;;;;2042347;29;20262;-65
2021/07/11 03:06:18;;;;;;;4.20;3.80;;;;;24.00;100442.00;;;;2042630;28;20732;-65
2021/07/11 03:07:18;;;;;;;4.33;3.93;;;;;24.00;100436.00;;;;2058240;28;20223;-65
2021/07/11 03:08:19;;;;;;;4.30;3.90;;;;;24.00;100436.00;;;;2059185;28;20731;-64
2021/07/11 03:09:19;;;;;;;3.93;3.60;;;;;24.00;100426.00;;;;2058297;28;20322;-65
2021/07/11 03:10:19;;;;;;;3.80;3.27;;;;;24.00;100437.00;;;;2055955;28;20243;-65
2021/07/11 03:11:20;;;;;;;3.83;3.53;;;;;24.00;100433.00;;;;2060384;28;20211;-65
2021/07/11 03:12:20;;;;;;;3.70;3.40;;;;;24.00;100438.00;;;;2058287;28;20710;-64
2021/07/11 03:13:20;;;;;;;4.37;4.00;;;;;24.00;100433.00;;;;2050604;28;20709;-65
2021/07/11 03:14:21;;;;;;;3.60;3.30;;;;;24.00;100440.00;;;;2058319;28;20834;-65
2021/07/11 03:15:21;;;;;;;4.00;3.70;;;;;24.00;100438.00;;;;2058211;28;20238;-65
2021/07/11 03:16:22;;;;;;;4.47;4.07;;;;;24.00;100436.00;;;;2057966;28;20222;-65
2021/07/11 03:17:23;;;;;;;3.90;3.60;;;;;24.00;100438.00;;;;2050188;28;20219;-65
2021/07/11 03:18:23;;;;;;;4.70;4.30;;;;;24.00;100432.00;;;;2058084;28;20304;-64
2021/07/11 03:19:24;;;;;;;4.50;4.10;;;;;24.00;100443.00;;;;2050067;28;21033;-65
2021/07/11 03:20:25;;;;;;;5.80;4.43;;;;;24.00;100444.00;;;;2050043;28;20311;-65
2021/07/11 03:21:26;;;;;;;3.75;3.45;;;;;24.00;100432.00;;;;2059486;28;20211;-65
2021/07/11 03:22:30;;;;;;;3.90;3.37;;;;;24.00;100441.00;;;;2058756;28;20306;-64
2021/07/11 03:23:31;;;;;;;3.90;3.55;;;;;24.00;100448.00;;;;2051185;28;20218;-65
2021/07/11 03:24:31;;;;;;;5.03;4.53;;;;;24.00;100442.00;;;;2049991;28;20754;-64
2021/07/11 03:25:32;;;;;;;4.10;3.80;;;;;24.00;100447.00;;;;2048942;28;20223;-64
2021/07/11 03:26:34;;;;;;;3.50;3.20;;;;;24.00;100452.00;;;;2058225;28;20227;-65
2021/07/11 03:27:34;;;;;;;3.90;3.05;;;;;23.90;100448.00;;;;2050105;28;20224;-64
2021/07/11 03:28:35;;;;;;;4.17;3.77;;;;;24.00;100449.00;;;;2051159;28;20279;-65
2021/07/11 03:29:41;;;;;;;5.30;4.90;;;;;24.00;100454.00;;;;2056819;28;20628;-64
2021/07/11 03:30:43;;;;;;;4.90;4.50;;;;;24.00;100448.00;;;;2058139;28;20273;-64
2021/07/11 03:31:43;;;;;;;5.25;4.63;;;;;24.00;100457.00;;;;2049137;28;20231;-64
2021/07/11 03:32:53;;;;;;;4.60;4.20;;;;;24.00;100451.00;;;;2042207;28;20580;-65
2021/07/11 03:33:54;;;;;;;3.58;3.28;;;;;24.00;100455.00;;;;2059143;28;20218;-65
2021/07/11 03:34:54;;;;;;;4.57;4.15;;;;;24.00;100459.00;;;;2061096;28;20595;-65
2021/07/11 03:35:58;;;;;;;4.30;4.00;;;;;24.00;100460.00;;;;2048899;28;20224;-65
2021/07/11 03:37:01;;;;;;;4.63;4.18;;;;;24.00;100462.00;;;;2056258;28;20758;-65
2021/07/11 03:38:02;;;;;;;4.25;3.92;;;;;24.00;100459.00;;;;2058625;28;20238;-65
2021/07/11 03:39:04;;;;;;;4.17;3.77;;;;;24.00;100469.00;;;;2049691;28;20215;-64
2021/07/11 03:40:05;;;;;;;3.97;3.67;;;;;24.00;100467.00;;;;2049881;28;20840;-65
2021/07/11 03:41:06;;;;;;;4.40;4.05;;;;;24.00;100463.00;;;;2049756;28;20266;-65
2021/07/11 03:42:07;;;;;;;3.47;3.17;;;;;24.00;100469.00;;;;2050760;28;20627;-65
2021/07/11 03:43:08;;;;;;;4.38;4.03;;;;;24.00;100462.00;;;;2058592;28;20215;-64
2021/07/11 03:44:08;;;;;;;4.37;4.07;;;;;24.00;100470.00;;;;2067295;28;20669;-64
2021/07/11 03:45:10;;;;;;;4.70;3.97;;;;;23.90;100469.00;;;;2058500;28;20461;-64
2021/07/11 03:46:10;;;;;;;3.92;3.65;;;;;24.00;100471.00;;;;2057957;28;20214;-64
2021/07/11 03:47:11;;;;;;;4.00;3.60;;;;;24.00;100467.00;;;;2066327;28;20727;-65
2021/07/11 03:48:19;;;;;;;3.63;3.33;;;;;24.00;100467.00;;;;2049925;28;20200;-65
2021/07/11 03:49:19;;;;;;;3.40;3.10;;;;;24.00;100476.00;;;;2054328;28;20722;-64
2021/07/11 03:50:20;;;;;;;4.47;4.07;;;;;24.00;100474.00;;;;2057120;28;20310;-65
2021/07/11 03:51:25;;;;;;;4.73;4.33;;;;;24.00;100478.00;;;;2058542;28;20355;-64
2021/07/11 03:52:26;;;;;;;3.80;3.50;;;;;24.00;100479.00;;;;2050276;28;20539;-65
2021/07/11 03:53:29;;;;;;;4.25;3.90;;;;;24.00;100478.00;;;;2042783;28;20213;-64
2021/07/11 03:54:29;;;;;;;3.85;3.55;;;;;24.00;100482.00;;;;2044346;28;20302;-64
2021/07/11 03:55:30;;;;;;;3.90;3.57;;;;;23.90;100482.00;;;;2048679;28;20381;-64
2021/07/11 03:56:32;;;;;;;4.00;3.70;;;;;24.00;100482.00;;;;2048162;28;20319;-64
2021/07/11 03:57:32;;;;;;;3.78;3.47;;;;;24.00;100486.00;;;;2042659;28;20260;-64
2021/07/11 03:58:40;;;;;;;4.30;4.00;;;;;24.00;100482.00;;;;2042663;28;20256;-65
2021/07/11 03:59:40;;;;;;;6.57;4.20;;;;;24.00;100492.00;;;;2050716;28;20310;-64
2021/07/11 04:00:41;;;;;;;5.13;4.73;;;;;24.00;100484.00;;;;2048596;28;20234;-65
2021/07/11 04:01:41;;;;;;;5.47;4.97;;;;;23.90;100487.00;;;;2041940;29;20744;-65
2021/07/11 04:02:42;;;;;;;4.40;4.00;;;;;24.00;100487.00;;;;2049973;28;20251;-65
2021/07/11 04:03:42;;;;;;;4.40;4.10;;;;;24.00;100485.00;;;;2042377;28;20219;-65
2021/07/11 04:04:42;;;;;;;4.40;4.10;;;;;23.90;100491.00;;;;2033583;29;20568;-64
2021/07/11 04:05:43;;;;;;;4.47;4.17;;;;;23.90;100489.00;;;;2044122;28;20222;-65
2021/07/11 04:06:47;;;;;;;4.53;4.13;;;;;24.00;100492.00;;;;2052687;28;20212;-65
2021/07/11 04:07:49;;;;;;;5.57;5.07;;;;;23.90;100491.00;;;;2034672;29;20229;-65
2021/07/11 04:08:50;;;;;;;5.63;5.13;;;;;23.90;100491.00;;;;2034445;29;20224;-65
2021/07/11 04:09:50;;;;;;;4.97;4.57;;;;;24.00;100490.00;;;;2041813;29;20272;-65
2021/07/11 04:10:50;;;;;;;6.07;5.57;;;;;24.00;100494.00;;;;2049271;28;20220;-65
2021/07/11 04:11:51;;;;;;;4.57;4.17;;;;;24.00;100489.00;;;;2058621;28;20652;-64
2021/07/11 04:12:52;;;;;;;4.57;4.17;;;;;24.00;100497.00;;;;2041406;28;20323;-65
2021/07/11 04:13:52;;;;;;;4.20;3.90;;;;;23.90;100498.00;;;;2042483;28;20359;-65
2021/07/11 04:14:53;;;;;;;4.90;4.50;;;;;24.00;100491.00;;;;2050464;28;20267;-65
2021/07/11 04:15:57;;;;;;;4.40;4.00;;;;;23.90;100491.00;;;;2058268;28;20215;-65
2021/07/11 04:17:01;;;;;;;4.40;4.00;;;;;23.90;100480.00;;;;2049462;28;20220;-64
2021/07/11 04:18:03;;;;;;;4.70;4.30;;;;;24.00;100488.00;;;;2033999;29;20304;-65
2021/07/11 04:19:04;;;;;;;5.50;5.10;;;;;24.00;100496.00;;;;2038938;28;20241;-65
2021/07/11 04:20:04;;;;;;;4.57;4.17;;;;;24.00;100485.00;;;;2046123;28;20212;-65
2021/07/11 04:21:05;;;;;;;4.40;4.00;;;;;24.00;100492.00;;;;2033424;29;20342;-65
2021/07/11 04:22:05;;;;;;;4.37;4.07;;;;;24.00;100499.00;;;;2033833;29;20465;-65
2021/07/11 04:23:06;;;;;;;4.83;4.43;;;;;24.00;100493.00;;;;2050461;28;20240;-64
2021/07/11 04:24:06;;;;;;;5.70;5.27;;;;;24.00;100494.00;;;;2059096;28;20302;-64
2021/07/11 04:25:10;;;;;;;5.70;4.60;;;;;23.90;100490.00;;;;2050538;28;20236;-65
2021/07/11 04:26:11;;;;;;;3.88;3.60;;;;;24.00;100494.00;;;;2041979;28;20386;-65
2021/07/11 04:27:12;;;;;;;4.63;4.22;;;;;23.90;100496.00;;;;2041992;29;20751;-64
2021/07/11 04:28:12;;;;;;;4.07;3.77;;;;;23.90;100497.00;;;;2033960;29;20205;-64
2021/07/11 04:29:13;;;;;;;6.00;5.50;;;;;23.90;100501.00;;;;2041601;29;20361;-65
2021/07/11 04:30:14;;;;;;;5.17;4.40;;;;;24.00;100504.00;;;;2049248;28;20232;-64
2021/07/11 04:31:14;;;;;;;4.68;4.30;;;;;23.90;100496.00;;;;2053298;28;20220;-65
2021/07/11 04:32:14;;;;;;;5.10;4.20;;;;;23.90;100505.00;;;;2049768;28;20211;-65
2021/07/11 04:33:15;;;;;;;6.10;5.60;;;;;23.90;100502.00;;;;2041999;29;20213;-64
2021/07/11 04:34:28;;;;;;;4.20;3.90;;;;;23.90;100500.00;;;;2049876;28;20212;-65
2021/07/11 04:35:29;;;;;;;5.20;4.80;;;;;23.80;100494.00;;;;2062447;28;20832;-65
2021/07/11 04:36:30;;;;;;;4.38;3.92;;;;;23.90;100499.00;;;;2061652;28;20228;-64
2021/07/11 04:37:30;;;;;;;4.90;4.50;;;;;23.90;100498.00;;;;2060920;28;20227;-65
2021/07/11 04:38:30;;;;;;;4.50;4.10;;;;;23.90;100498.00;;;;2059068;28;20323;-65
2021/07/11 04:39:31;;;;;;;4.00;3.70;;;;;23.90;100503.00;;;;2058969;28;20219;-65
2021/07/11 04:40:31;;;;;;;3.80;3.50;;;;;23.90;100500.00;;;;2058317;28;20231;-64
2021/07/11 04:41:32;;;;;;;4.43;4.13;;;;;23.90;100491.00;;;;2058898;28;20214;-65
2021/07/11 04:42:32;;;;;;;4.67;4.27;;;;;23.90;100489.00;;;;2057522;28;20627;-65
2021/07/11 04:43:33;;;;;;;4.23;3.93;;;;;23.90;100492.00;;;;2058465;28;20454;-65
2021/07/11 04:44:33;;;;;;;4.63;4.23;;;;;23.90;100490.00;;;;2058187;28;20219;-65
2021/07/11 04:45:33;;;;;;;4.90;4.50;;;;;24.00;100489.00;;;;2058235;28;20219;-64
2021/07/11 04:46:34;;;;;;;4.90;4.50;;;;;23.90;100489.00;;;;2059162;28;20642;-65
2021/07/11 04:47:34;;;;;;;5.13;4.73;;;;;24.00;100484.00;;;;2058936;28;20227;-64
2021/07/11 04:48:34;;;;;;;5.13;4.70;;;;;23.90;100483.00;;;;2059004;28;20238;-64
2021/07/11 04:49:35;;;;;;;5.10;4.60;;;;;23.90;100489.00;;;;2058707;28;20219;-65
2021/07/11 04:50:35;;;;;;;4.90;4.50;;;;;24.00;100486.00;;;;2057704;28;20269;-65
2021/07/11 04:51:36;;;;;;;5.70;5.20;;;;;23.90;100482.00;;;;2058788;28;20214;-65
2021/07/11 04:52:39;;;;;;;5.20;4.70;;;;;24.00;100482.00;;;;2051311;28;20212;-65
2021/07/11 04:53:40;;;;;;;5.20;4.80;;;;;23.90;100478.00;;;;2051664;28;20215;-65
2021/07/11 04:54:40;;;;;;;5.47;5.07;;;;;24.00;100481.00;;;;2060581;28;20314;-65
2021/07/11 04:55:40;;;;;;;5.97;5.47;;;;;23.90;100476.00;;;;2060403;28;20223;-65
2021/07/11 04:56:41;;;;;;;5.23;4.77;;;;;23.90;100476.00;;;;2051961;28;20220;-64
2021/07/11 04:57:41;;;;;;;5.50;5.00;;;;;24.00;100476.00;;;;2051661;28;20216;-64
2021/07/11 04:58:41;;;;;;;5.37;4.97;;;;;23.90;100475.00;;;;2059887;28;20219;-65
2021/07/11 04:59:42;;;;;;;5.80;5.30;;;;;23.90;100471.00;;;;2059539;28;20272;-65
2021/07/11 05:00:42;;;;;;;6.00;5.50;;;;;23.90;100471.00;;;;2059107;28;20219;-64
2021/07/11 05:01:42;;;;;;;6.47;5.90;;;;;23.90;100478.00;;;;2059821;28;20733;-65
2021/07/11 05:02:43;;;;;;;5.33;4.93;;;;;23.90;100465.00;;;;2059968;28;20216;-65
2021/07/11 05:03:43;;;;;;;6.10;5.60;;;;;23.90;100462.00;;;;2058192;28;20215;-65
2021/07/11 05:04:43;;;;;;;6.40;5.23;;;;;23.90;100471.00;;;;2050202;28;20244;-65